sensor_id;sensor_type;location;lat;lon;timestamp;P1;durP1;ratioP1;P2;durP2;ratioP2
9117;SDS011;4594;50.994;7.126;2023-05-10T00:00:20;4.33;;;4.13;;
9117;SDS011;4594;50.994;7.126;2023-05-10T00:02:47;4.73;;;4.43;;
9117;SDS011;4594;50.994;7.126;2023-05-10T00:05:13;4.67;;;4.33;;
9117;SDS011;4594;50.994;7.126;2023-05-10T00:07:39;4.97;;;4.17;;
9117;SDS011;4594;50.994;7.126;2023-05-10T00:10:05;5.00;;;4.70;;
9117;SDS011;4594;50.994;7.126;2023-05-10T00:12:31;4.83;;;4.53;;
9117;SDS011;4594;50.994;7.126;2023-05-10T00:14:57;5.50;;;5.00;;
9117;SDS011;4594;50.994;7.126;2023-05-10T00:17:22;5.00;;;4.70;;
9117;SDS011;4594;50.994;7.126;2023-05-10T00:19:48;5.33;;;4.97;;
9117;SDS011;4594;50.994;7.126;2023-05-10T00:22:14;5.57;;;5.07;;
9117;SDS011;4594;50.994;7.126;2023-05-10T00:24:39;5.30;;;4.90;;
9117;SDS011;4594;50.994;7.126;2023-05-10T00:27:05;5.80;;;5.30;;
9117;SDS011;4594;50.994;7.126;2023-05-10T00:29:31;5.53;;;5.10;;
9117;SDS011;4594;50.994;7.126;2023-05-10T00:31:58;6.00;;;5.50;;
9117;SDS011;4594;50.994;7.126;2023-05-10T00:34:23;6.73;;;5.47;;
9117;SDS011;4594;50.994;7.126;2023-05-10T00:36:49;5.90;;;5.40;;
9117;SDS011;4594;50.994;7.126;2023-05-10T00:39:15;5.27;;;4.87;;
9117;SDS011;4594;50.994;7.126;2023-05-10T00:41:41;4.63;;;4.33;;
9117;SDS011;4594;50.994;7.126;2023-05-10T00:44:06;6.13;;;5.63;;
9117;SDS011;4594;50.994;7.126;2023-05-10T00:46:32;5.87;;;5.37;;
9117;SDS011;4594;50.994;7.126;2023-05-10T00:48:58;6.03;;;5.53;;
9117;SDS011;4594;50.994;7.126;2023-05-10T00:51:24;5.83;;;5.33;;
9117;SDS011;4594;50.994;7.126;2023-05-10T00:53:50;6.47;;;5.83;;
9117;SDS011;4594;50.994;7.126;2023-05-10T00:56:16;6.13;;;5.63;;
9117;SDS011;4594;50.994;7.126;2023-05-10T00:58:42;6.40;;;5.83;;
9117;SDS011;4594;50.994;7.126;2023-05-10T01:01:08;5.63;;;5.13;;
9117;SDS011;4594;50.994;7.126;2023-05-10T01:03:35;5.73;;;5.23;;
9117;SDS011;4594;50.994;7.126;2023-05-10T01:06:02;6.77;;;5.67;;
9117;SDS011;4594;50.994;7.126;2023-05-10T01:08:28;6.27;;;5.77;;
9117;SDS011;4594;50.994;7.126;2023-05-10T01:10:54;6.80;;;6.10;;
9117;SDS011;4594;50.994;7.126;2023-05-10T01:13:34;5.80;;;5.30;;
9117;SDS011;4594;50.994;7.126;2023-05-10T01:16:03;6.60;;;6.03;;
9117;SDS011;4594;50.994;7.126;2023-05-10T01:18:30;6.57;;;5.97;;
9117;SDS011;4594;50.994;7.126;2023-05-10T01:21:06;8.97;;;6.60;;
9117;SDS011;4594;50.994;7.126;2023-05-10T01:23:48;6.30;;;5.70;;
9117;SDS011;4594;50.994;7.126;2023-05-10T01:27:17;6.97;;;6.27;;
9117;SDS011;4594;50.994;7.126;2023-05-10T01:44:20;7.87;;;7.07;;
9117;SDS011;4594;50.994;7.126;2023-05-10T01:47:12;6.40;;;5.80;;
9117;SDS011;4594;50.994;7.126;2023-05-10T01:49:49;7.27;;;6.57;;
9117;SDS011;4594;50.994;7.126;2023-05-10T01:52:18;7.23;;;6.53;;
9117;SDS011;4594;50.994;7.126;2023-05-10T01:54:55;9.23;;;7.37;;
9117;SDS011;4594;50.994;7.126;2023-05-10T01:57:27;7.67;;;6.90;;
9117;SDS011;4594;50.994;7.126;2023-05-10T02:00:01;8.80;;;7.20;;
9117;SDS011;4594;50.994;7.126;2023-05-10T02:02:30;8.30;;;7.37;;
9117;SDS011;4594;50.994;7.126;2023-05-10T02:05:03;7.70;;;6.80;;
9117;SDS011;4594;50.994;7.126;2023-05-10T02:07:31;7.00;;;6.30;;
9117;SDS011;4594;50.994;7.126;2023-05-10T02:10:02;6.83;;;6.17;;
9117;SDS011;4594;50.994;7.126;2023-05-10T02:12:30;6.73;;;6.13;;
9117;SDS011;4594;50.994;7.126;2023-05-10T02:15:01;4.90;;;4.60;;
9117;SDS011;4594;50.994;7.126;2023-05-10T02:17:30;5.83;;;5.23;;
9117;SDS011;4594;50.994;7.126;2023-05-10T02:19:58;6.13;;;5.63;;
9117;SDS011;4594;50.994;7.126;2023-05-10T02:22:26;4.67;;;4.30;;
9117;SDS011;4594;50.994;7.126;2023-05-10T02:24:54;4.83;;;4.43;;
9117;SDS011;4594;50.994;7.126;2023-05-10T02:27:23;4.63;;;4.33;;
9117;SDS011;4594;50.994;7.126;2023-05-10T02:29:52;5.43;;;4.93;;
9117;SDS011;4594;50.994;7.126;2023-05-10T02:32:20;5.70;;;4.50;;
9117;SDS011;4594;50.994;7.126;2023-05-10T02:34:48;5.20;;;4.70;;
9117;SDS011;4594;50.994;7.126;2023-05-10T02:37:17;5.23;;;4.60;;
9117;SDS011;4594;50.994;7.126;2023-05-10T02:39:47;4.80;;;4.40;;
9117;SDS011;4594;50.994;7.126;2023-05-10T02:42:16;6.70;;;4.50;;
9117;SDS011;4594;50.994;7.126;2023-05-10T02:44:48;5.10;;;4.50;;
9117;SDS011;4594;50.994;7.126;2023-05-10T02:47:17;4.83;;;4.40;;
9117;SDS011;4594;50.994;7.126;2023-05-10T02:49:43;4.23;;;3.93;;
9117;SDS011;4594;50.994;7.126;2023-05-10T02:52:10;4.53;;;4.23;;
9117;SDS011;4594;50.994;7.126;2023-05-10T02:54:43;6.83;;;4.40;;
9117;SDS011;4594;50.994;7.126;2023-05-10T02:57:15;4.30;;;3.90;;
9117;SDS011;4594;50.994;7.126;2023-05-10T02:59:45;3.93;;;3.67;;
9117;SDS011;4594;50.994;7.126;2023-05-10T03:02:12;4.20;;;3.87;;
9117;SDS011;4594;50.994;7.126;2023-05-10T03:04:38;3.93;;;3.73;;
9117;SDS011;4594;50.994;7.126;2023-05-10T03:07:04;4.27;;;3.90;;
9117;SDS011;4594;50.994;7.126;2023-05-10T03:09:30;3.73;;;3.43;;
9117;SDS011;4594;50.994;7.126;2023-05-10T03:14:57;3.90;;;3.50;;
9117;SDS011;4594;50.994;7.126;2023-05-10T03:17:47;3.83;;;3.53;;
9117;SDS011;4594;50.994;7.126;2023-05-10T03:20:57;3.50;;;3.20;;
9117;SDS011;4594;50.994;7.126;2023-05-10T03:23:32;3.47;;;3.23;;
9117;SDS011;4594;50.994;7.126;2023-05-10T03:26:17;3.83;;;3.60;;
9117;SDS011;4594;50.994;7.126;2023-05-10T03:28:48;3.27;;;3.07;;
9117;SDS011;4594;50.994;7.126;2023-05-10T03:31:15;3.47;;;3.23;;
9117;SDS011;4594;50.994;7.126;2023-05-10T03:33:46;3.60;;;3.40;;
9117;SDS011;4594;50.994;7.126;2023-05-10T03:36:13;3.57;;;3.27;;
9117;SDS011;4594;50.994;7.126;2023-05-10T03:38:39;3.70;;;3.47;;
9117;SDS011;4594;50.994;7.126;2023-05-10T03:41:05;3.97;;;3.67;;
9117;SDS011;4594;50.994;7.126;2023-05-10T03:43:30;4.53;;;3.50;;
9117;SDS011;4594;50.994;7.126;2023-05-10T03:45:56;4.00;;;3.60;;
9117;SDS011;4594;50.994;7.126;2023-05-10T03:48:22;7.63;;;3.77;;
9117;SDS011;4594;50.994;7.126;2023-05-10T03:50:47;5.27;;;3.77;;
9117;SDS011;4594;50.994;7.126;2023-05-10T03:53:14;4.30;;;4.00;;
9117;SDS011;4594;50.994;7.126;2023-05-10T03:55:40;4.77;;;4.37;;
9117;SDS011;4594;50.994;7.126;2023-05-10T03:58:06;4.47;;;4.10;;
9117;SDS011;4594;50.994;7.126;2023-05-10T04:00:36;4.57;;;4.17;;
9117;SDS011;4594;50.994;7.126;2023-05-10T04:03:02;5.40;;;4.43;;
9117;SDS011;4594;50.994;7.126;2023-05-10T04:05:27;5.70;;;5.07;;
9117;SDS011;4594;50.994;7.126;2023-05-10T04:07:53;4.47;;;4.07;;
9117;SDS011;4594;50.994;7.126;2023-05-10T04:10:19;5.07;;;4.57;;
9117;SDS011;4594;50.994;7.126;2023-05-10T04:12:46;4.63;;;4.33;;
9117;SDS011;4594;50.994;7.126;2023-05-10T04:15:11;5.17;;;4.77;;
9117;SDS011;4594;50.994;7.126;2023-05-10T04:17:37;5.23;;;4.80;;
9117;SDS011;4594;50.994;7.126;2023-05-10T04:20:03;5.83;;;5.23;;
9117;SDS011;4594;50.994;7.126;2023-05-10T04:22:29;5.90;;;5.30;;
9117;SDS011;4594;50.994;7.126;2023-05-10T04:24:56;6.77;;;6.13;;
9117;SDS011;4594;50.994;7.126;2023-05-10T04:27:22;7.27;;;6.33;;
9117;SDS011;4594;50.994;7.126;2023-05-10T04:29:48;6.43;;;5.77;;
9117;SDS011;4594;50.994;7.126;2023-05-10T04:32:13;6.30;;;5.70;;
9117;SDS011;4594;50.994;7.126;2023-05-10T04:34:41;6.87;;;6.10;;
9117;SDS011;4594;50.994;7.126;2023-05-10T04:37:06;6.80;;;5.77;;
9117;SDS011;4594;50.994;7.126;2023-05-10T04:39:32;7.30;;;5.47;;
9117;SDS011;4594;50.994;7.126;2023-05-10T04:41:58;8.40;;;6.30;;
9117;SDS011;4594;50.994;7.126;2023-05-10T04:44:24;7.47;;;5.90;;
9117;SDS011;4594;50.994;7.126;2023-05-10T04:46:49;6.43;;;5.33;;
9117;SDS011;4594;50.994;7.126;2023-05-10T04:49:15;9.17;;;6.07;;
9117;SDS011;4594;50.994;7.126;2023-05-10T04:51:41;7.60;;;6.07;;
9117;SDS011;4594;50.994;7.126;2023-05-10T04:54:07;8.60;;;6.20;;
9117;SDS011;4594;50.994;7.126;2023-05-10T04:56:33;6.47;;;5.60;;
9117;SDS011;4594;50.994;7.126;2023-05-10T04:58:58;7.87;;;5.73;;
9117;SDS011;4594;50.994;7.126;2023-05-10T05:01:24;8.57;;;5.83;;
9117;SDS011;4594;50.994;7.126;2023-05-10T05:03:50;6.53;;;5.40;;
9117;SDS011;4594;50.994;7.126;2023-05-10T05:06:17;5.97;;;5.37;;
9117;SDS011;4594;50.994;7.126;2023-05-10T05:08:43;5.50;;;5.10;;
9117;SDS011;4594;50.994;7.126;2023-05-10T05:11:09;5.57;;;5.07;;
9117;SDS011;4594;50.994;7.126;2023-05-10T05:13:34;6.47;;;5.37;;
9117;SDS011;4594;50.994;7.126;2023-05-10T05:16:01;6.00;;;5.50;;
9117;SDS011;4594;50.994;7.126;2023-05-10T05:18:28;5.63;;;5.13;;
9117;SDS011;4594;50.994;7.126;2023-05-10T05:20:53;6.83;;;5.47;;
9117;SDS011;4594;50.994;7.126;2023-05-10T05:23:19;8.50;;;6.83;;
9117;SDS011;4594;50.994;7.126;2023-05-10T05:25:45;9.37;;;7.00;;
9117;SDS011;4594;50.994;7.126;2023-05-10T05:28:11;9.73;;;7.50;;
9117;SDS011;4594;50.994;7.126;2023-05-10T05:30:37;12.63;;;7.80;;
9117;SDS011;4594;50.994;7.126;2023-05-10T05:33:03;9.97;;;8.13;;
9117;SDS011;4594;50.994;7.126;2023-05-10T05:35:29;14.70;;;8.13;;
9117;SDS011;4594;50.994;7.126;2023-05-10T05:37:54;8.93;;;7.30;;
9117;SDS011;4594;50.994;7.126;2023-05-10T05:40:20;9.77;;;7.90;;
9117;SDS011;4594;50.994;7.126;2023-05-10T05:42:46;11.67;;;7.97;;
9117;SDS011;4594;50.994;7.126;2023-05-10T05:45:12;15.17;;;8.87;;
9117;SDS011;4594;50.994;7.126;2023-05-10T05:47:38;9.50;;;7.60;;
9117;SDS011;4594;50.994;7.126;2023-05-10T05:50:05;10.50;;;8.50;;
9117;SDS011;4594;50.994;7.126;2023-05-10T05:52:31;17.47;;;8.40;;
9117;SDS011;4594;50.994;7.126;2023-05-10T05:54:56;9.70;;;7.70;;
9117;SDS011;4594;50.994;7.126;2023-05-10T05:57:22;12.13;;;9.10;;
9117;SDS011;4594;50.994;7.126;2023-05-10T05:59:48;9.83;;;7.63;;
9117;SDS011;4594;50.994;7.126;2023-05-10T06:02:13;9.97;;;7.67;;
9117;SDS011;4594;50.994;7.126;2023-05-10T06:04:39;9.83;;;7.47;;
9117;SDS011;4594;50.994;7.126;2023-05-10T06:07:05;9.87;;;7.80;;
9117;SDS011;4594;50.994;7.126;2023-05-10T06:09:30;8.70;;;7.77;;
9117;SDS011;4594;50.994;7.126;2023-05-10T06:11:56;8.83;;;7.63;;
9117;SDS011;4594;50.994;7.126;2023-05-10T06:14:22;11.93;;;7.43;;
9117;SDS011;4594;50.994;7.126;2023-05-10T06:16:47;10.17;;;8.37;;
9117;SDS011;4594;50.994;7.126;2023-05-10T06:19:13;12.23;;;8.13;;
9117;SDS011;4594;50.994;7.126;2023-05-10T06:21:39;14.27;;;8.40;;
9117;SDS011;4594;50.994;7.126;2023-05-10T06:24:05;10.80;;;7.73;;
9117;SDS011;4594;50.994;7.126;2023-05-10T06:26:31;13.27;;;8.37;;
9117;SDS011;4594;50.994;7.126;2023-05-10T06:28:57;11.00;;;7.57;;
9117;SDS011;4594;50.994;7.126;2023-05-10T06:31:23;13.33;;;8.40;;
9117;SDS011;4594;50.994;7.126;2023-05-10T06:33:49;12.90;;;8.37;;
9117;SDS011;4594;50.994;7.126;2023-05-10T06:36:14;13.63;;;8.40;;
9117;SDS011;4594;50.994;7.126;2023-05-10T06:38:40;13.13;;;7.83;;
9117;SDS011;4594;50.994;7.126;2023-05-10T06:41:06;11.40;;;8.90;;
9117;SDS011;4594;50.994;7.126;2023-05-10T06:43:31;13.40;;;8.17;;
9117;SDS011;4594;50.994;7.126;2023-05-10T06:45:57;13.27;;;8.20;;
9117;SDS011;4594;50.994;7.126;2023-05-10T06:48:23;10.60;;;8.03;;
9117;SDS011;4594;50.994;7.126;2023-05-10T06:50:48;11.43;;;7.83;;
9117;SDS011;4594;50.994;7.126;2023-05-10T06:53:14;10.87;;;7.60;;
9117;SDS011;4594;50.994;7.126;2023-05-10T06:55:40;9.23;;;7.50;;
9117;SDS011;4594;50.994;7.126;2023-05-10T06:58:06;12.00;;;8.67;;
9117;SDS011;4594;50.994;7.126;2023-05-10T07:00:31;11.47;;;8.60;;
9117;SDS011;4594;50.994;7.126;2023-05-10T07:02:57;10.53;;;8.17;;
9117;SDS011;4594;50.994;7.126;2023-05-10T07:05:23;11.57;;;7.67;;
9117;SDS011;4594;50.994;7.126;2023-05-10T07:07:49;10.73;;;8.13;;
9117;SDS011;4594;50.994;7.126;2023-05-10T07:10:15;10.17;;;7.97;;
9117;SDS011;4594;50.994;7.126;2023-05-10T07:12:41;13.27;;;8.83;;
9117;SDS011;4594;50.994;7.126;2023-05-10T07:15:07;12.07;;;8.33;;
9117;SDS011;4594;50.994;7.126;2023-05-10T07:17:33;12.30;;;8.33;;
9117;SDS011;4594;50.994;7.126;2023-05-10T07:19:59;11.20;;;9.33;;
9117;SDS011;4594;50.994;7.126;2023-05-10T07:22:25;14.80;;;9.23;;
9117;SDS011;4594;50.994;7.126;2023-05-10T07:24:51;11.47;;;8.67;;
9117;SDS011;4594;50.994;7.126;2023-05-10T07:27:16;15.27;;;9.60;;
9117;SDS011;4594;50.994;7.126;2023-05-10T07:29:42;10.67;;;8.37;;
9117;SDS011;4594;50.994;7.126;2023-05-10T07:32:08;12.00;;;8.47;;
9117;SDS011;4594;50.994;7.126;2023-05-10T07:34:33;16.83;;;8.93;;
9117;SDS011;4594;50.994;7.126;2023-05-10T07:36:59;10.17;;;7.93;;
9117;SDS011;4594;50.994;7.126;2023-05-10T07:39:26;16.13;;;8.30;;
9117;SDS011;4594;50.994;7.126;2023-05-10T07:41:52;12.77;;;8.33;;
9117;SDS011;4594;50.994;7.126;2023-05-10T07:44:19;13.90;;;8.93;;
9117;SDS011;4594;50.994;7.126;2023-05-10T07:46:45;10.60;;;7.73;;
9117;SDS011;4594;50.994;7.126;2023-05-10T07:49:12;14.50;;;9.23;;
9117;SDS011;4594;50.994;7.126;2023-05-10T07:51:38;12.33;;;8.57;;
9117;SDS011;4594;50.994;7.126;2023-05-10T07:54:04;12.20;;;8.30;;
9117;SDS011;4594;50.994;7.126;2023-05-10T07:56:30;15.13;;;9.83;;
9117;SDS011;4594;50.994;7.126;2023-05-10T07:58:58;10.70;;;7.80;;
9117;SDS011;4594;50.994;7.126;2023-05-10T08:01:24;14.97;;;8.87;;
9117;SDS011;4594;50.994;7.126;2023-05-10T08:03:51;12.43;;;8.07;;
9117;SDS011;4594;50.994;7.126;2023-05-10T08:06:18;11.43;;;8.63;;
9117;SDS011;4594;50.994;7.126;2023-05-10T08:08:45;13.27;;;8.60;;
9117;SDS011;4594;50.994;7.126;2023-05-10T08:11:15;12.77;;;8.73;;
9117;SDS011;4594;50.994;7.126;2023-05-10T08:13:45;12.80;;;8.57;;
9117;SDS011;4594;50.994;7.126;2023-05-10T08:16:12;12.90;;;9.10;;
9117;SDS011;4594;50.994;7.126;2023-05-10T08:18:39;14.83;;;8.67;;
9117;SDS011;4594;50.994;7.126;2023-05-10T08:21:05;9.53;;;7.83;;
9117;SDS011;4594;50.994;7.126;2023-05-10T08:23:31;11.67;;;8.37;;
9117;SDS011;4594;50.994;7.126;2023-05-10T08:25:57;11.60;;;8.17;;
9117;SDS011;4594;50.994;7.126;2023-05-10T08:28:23;10.67;;;7.77;;
9117;SDS011;4594;50.994;7.126;2023-05-10T08:30:49;10.33;;;7.83;;
9117;SDS011;4594;50.994;7.126;2023-05-10T08:33:17;10.47;;;7.87;;
9117;SDS011;4594;50.994;7.126;2023-05-10T08:35:43;11.90;;;7.70;;
9117;SDS011;4594;50.994;7.126;2023-05-10T08:38:09;8.83;;;7.57;;
9117;SDS011;4594;50.994;7.126;2023-05-10T08:40:36;12.23;;;7.77;;
9117;SDS011;4594;50.994;7.126;2023-05-10T08:43:06;9.43;;;7.17;;
9117;SDS011;4594;50.994;7.126;2023-05-10T08:45:38;11.53;;;7.17;;
9117;SDS011;4594;50.994;7.126;2023-05-10T08:48:07;7.30;;;6.50;;
9117;SDS011;4594;50.994;7.126;2023-05-10T08:50:35;7.93;;;6.47;;
9117;SDS011;4594;50.994;7.126;2023-05-10T08:53:03;7.00;;;6.27;;
9117;SDS011;4594;50.994;7.126;2023-05-10T08:55:35;10.43;;;6.27;;
9117;SDS011;4594;50.994;7.126;2023-05-10T08:58:03;5.97;;;5.43;;
9117;SDS011;4594;50.994;7.126;2023-05-10T09:00:32;7.67;;;5.43;;
9117;SDS011;4594;50.994;7.126;2023-05-10T09:03:00;6.87;;;5.50;;
9117;SDS011;4594;50.994;7.126;2023-05-10T09:05:27;6.93;;;5.27;;
9117;SDS011;4594;50.994;7.126;2023-05-10T09:07:53;6.47;;;5.77;;
9117;SDS011;4594;50.994;7.126;2023-05-10T09:10:19;5.40;;;4.73;;
9117;SDS011;4594;50.994;7.126;2023-05-10T09:12:45;6.03;;;5.47;;
9117;SDS011;4594;50.994;7.126;2023-05-10T09:15:14;6.17;;;5.10;;
9117;SDS011;4594;50.994;7.126;2023-05-10T09:17:44;5.60;;;5.10;;
9117;SDS011;4594;50.994;7.126;2023-05-10T09:20:11;5.73;;;5.23;;
9117;SDS011;4594;50.994;7.126;2023-05-10T09:22:36;5.53;;;5.03;;
9117;SDS011;4594;50.994;7.126;2023-05-10T09:25:03;9.23;;;6.57;;
9117;SDS011;4594;50.994;7.126;2023-05-10T09:27:33;7.13;;;6.43;;
9117;SDS011;4594;50.994;7.126;2023-05-10T09:29:59;8.07;;;6.07;;
9117;SDS011;4594;50.994;7.126;2023-05-10T09:32:38;6.87;;;6.07;;
9117;SDS011;4594;50.994;7.126;2023-05-10T09:35:13;7.43;;;6.47;;
9117;SDS011;4594;50.994;7.126;2023-05-10T09:37:42;10.33;;;6.93;;
9117;SDS011;4594;50.994;7.126;2023-05-10T09:40:14;8.00;;;6.87;;
9117;SDS011;4594;50.994;7.126;2023-05-10T09:42:53;9.37;;;7.00;;
9117;SDS011;4594;50.994;7.126;2023-05-10T09:45:20;12.13;;;7.93;;
9117;SDS011;4594;50.994;7.126;2023-05-10T09:47:48;12.10;;;8.23;;
9117;SDS011;4594;50.994;7.126;2023-05-10T09:50:14;14.60;;;8.07;;
9117;SDS011;4594;50.994;7.126;2023-05-10T09:52:50;12.70;;;8.00;;
9117;SDS011;4594;50.994;7.126;2023-05-10T09:55:23;11.37;;;8.03;;
9117;SDS011;4594;50.994;7.126;2023-05-10T09:58:10;13.43;;;8.00;;
9117;SDS011;4594;50.994;7.126;2023-05-10T10:00:39;11.37;;;8.07;;
9117;SDS011;4594;50.994;7.126;2023-05-10T10:03:11;12.57;;;8.60;;
9117;SDS011;4594;50.994;7.126;2023-05-10T10:05:40;12.40;;;8.43;;
9117;SDS011;4594;50.994;7.126;2023-05-10T10:08:08;13.93;;;8.00;;
9117;SDS011;4594;50.994;7.126;2023-05-10T10:10:35;11.60;;;8.67;;
9117;SDS011;4594;50.994;7.126;2023-05-10T10:13:01;13.00;;;9.60;;
9117;SDS011;4594;50.994;7.126;2023-05-10T10:15:27;16.57;;;10.17;;
9117;SDS011;4594;50.994;7.126;2023-05-10T10:17:53;14.97;;;10.17;;
9117;SDS011;4594;50.994;7.126;2023-05-10T10:20:20;17.53;;;10.43;;
9117;SDS011;4594;50.994;7.126;2023-05-10T10:22:48;16.77;;;9.73;;
9117;SDS011;4594;50.994;7.126;2023-05-10T10:25:14;20.40;;;10.60;;
9117;SDS011;4594;50.994;7.126;2023-05-10T10:36:01;18.53;;;10.27;;
9117;SDS011;4594;50.994;7.126;2023-05-10T10:41:29;14.50;;;10.03;;
9117;SDS011;4594;50.994;7.126;2023-05-10T10:55:05;11.93;;;8.23;;
9117;SDS011;4594;50.994;7.126;2023-05-10T10:57:42;10.90;;;8.30;;
9117;SDS011;4594;50.994;7.126;2023-05-10T11:00:37;15.73;;;8.77;;
9117;SDS011;4594;50.994;7.126;2023-05-10T11:03:10;12.10;;;8.37;;
9117;SDS011;4594;50.994;7.126;2023-05-10T11:05:47;16.20;;;8.07;;
9117;SDS011;4594;50.994;7.126;2023-05-10T11:13:28;14.00;;;9.07;;
9117;SDS011;4594;50.994;7.126;2023-05-10T11:19:00;15.97;;;9.67;;
9117;SDS011;4594;50.994;7.126;2023-05-10T11:21:30;13.40;;;8.93;;
9117;SDS011;4594;50.994;7.126;2023-05-10T11:23:58;12.00;;;8.27;;
9117;SDS011;4594;50.994;7.126;2023-05-10T11:26:33;8.77;;;7.73;;
9117;SDS011;4594;50.994;7.126;2023-05-10T11:29:00;10.63;;;8.03;;
9117;SDS011;4594;50.994;7.126;2023-05-10T11:31:28;9.50;;;7.53;;
9117;SDS011;4594;50.994;7.126;2023-05-10T11:33:55;12.00;;;7.77;;
9117;SDS011;4594;50.994;7.126;2023-05-10T11:36:24;10.40;;;8.17;;
9117;SDS011;4594;50.994;7.126;2023-05-10T11:38:52;11.00;;;7.77;;
9117;SDS011;4594;50.994;7.126;2023-05-10T11:41:20;12.40;;;8.20;;
9117;SDS011;4594;50.994;7.126;2023-05-10T11:43:48;11.10;;;7.77;;
9117;SDS011;4594;50.994;7.126;2023-05-10T11:46:16;15.23;;;7.60;;
9117;SDS011;4594;50.994;7.126;2023-05-10T11:48:46;9.50;;;6.93;;
9117;SDS011;4594;50.994;7.126;2023-05-10T11:51:19;9.20;;;6.23;;
9117;SDS011;4594;50.994;7.126;2023-05-10T11:53:49;7.63;;;6.53;;
9117;SDS011;4594;50.994;7.126;2023-05-10T11:56:19;8.70;;;7.13;;
9117;SDS011;4594;50.994;7.126;2023-05-10T11:58:53;10.13;;;6.70;;
9117;SDS011;4594;50.994;7.126;2023-05-10T12:01:23;8.57;;;5.77;;
9117;SDS011;4594;50.994;7.126;2023-05-10T12:03:51;7.27;;;5.27;;
9117;SDS011;4594;50.994;7.126;2023-05-10T12:06:20;7.87;;;6.03;;
9117;SDS011;4594;50.994;7.126;2023-05-10T12:08:47;7.77;;;5.30;;
9117;SDS011;4594;50.994;7.126;2023-05-10T12:11:18;6.83;;;5.80;;
9117;SDS011;4594;50.994;7.126;2023-05-10T12:13:46;9.10;;;5.77;;
9117;SDS011;4594;50.994;7.126;2023-05-10T12:16:16;6.37;;;5.47;;
9117;SDS011;4594;50.994;7.126;2023-05-10T12:18:50;6.43;;;5.73;;
9117;SDS011;4594;50.994;7.126;2023-05-10T12:21:19;5.07;;;4.67;;
9117;SDS011;4594;50.994;7.126;2023-05-10T12:23:46;6.63;;;3.87;;
9117;SDS011;4594;50.994;7.126;2023-05-10T12:26:27;4.60;;;4.20;;
9117;SDS011;4594;50.994;7.126;2023-05-10T12:28:54;4.90;;;4.50;;
9117;SDS011;4594;50.994;7.126;2023-05-10T12:31:20;4.73;;;4.20;;
9117;SDS011;4594;50.994;7.126;2023-05-10T12:33:46;4.23;;;3.83;;
9117;SDS011;4594;50.994;7.126;2023-05-10T12:36:14;4.13;;;3.83;;
9117;SDS011;4594;50.994;7.126;2023-05-10T12:38:44;4.47;;;4.00;;
9117;SDS011;4594;50.994;7.126;2023-05-10T12:41:14;3.90;;;3.60;;
9117;SDS011;4594;50.994;7.126;2023-05-10T12:43:42;3.37;;;3.07;;
9117;SDS011;4594;50.994;7.126;2023-05-10T12:48:38;3.37;;;3.07;;
9117;SDS011;4594;50.994;7.126;2023-05-10T12:51:06;2.90;;;2.60;;
9117;SDS011;4594;50.994;7.126;2023-05-10T12:53:37;2.67;;;2.43;;
9117;SDS011;4594;50.994;7.126;2023-05-10T12:56:04;2.90;;;2.60;;
9117;SDS011;4594;50.994;7.126;2023-05-10T12:58:30;2.77;;;2.57;;
9117;SDS011;4594;50.994;7.126;2023-05-10T13:00:57;3.50;;;2.73;;
9117;SDS011;4594;50.994;7.126;2023-05-10T13:03:24;2.60;;;2.37;;
9117;SDS011;4594;50.994;7.126;2023-05-10T13:05:50;5.53;;;2.60;;
9117;SDS011;4594;50.994;7.126;2023-05-10T13:08:16;2.50;;;2.30;;
9117;SDS011;4594;50.994;7.126;2023-05-10T13:10:41;2.30;;;2.20;;
9117;SDS011;4594;50.994;7.126;2023-05-10T13:13:07;2.50;;;2.40;;
9117;SDS011;4594;50.994;7.126;2023-05-10T13:15:33;5.93;;;2.40;;
9117;SDS011;4594;50.994;7.126;2023-05-10T13:18:00;2.50;;;2.17;;
9117;SDS011;4594;50.994;7.126;2023-05-10T13:20:25;2.23;;;2.13;;
9117;SDS011;4594;50.994;7.126;2023-05-10T13:22:52;2.40;;;2.30;;
9117;SDS011;4594;50.994;7.126;2023-05-10T13:25:18;2.40;;;2.30;;
9117;SDS011;4594;50.994;7.126;2023-05-10T13:27:44;2.63;;;2.50;;
9117;SDS011;4594;50.994;7.126;2023-05-10T13:30:10;2.40;;;2.30;;
9117;SDS011;4594;50.994;7.126;2023-05-10T13:32:36;2.40;;;2.30;;
9117;SDS011;4594;50.994;7.126;2023-05-10T13:35:03;2.30;;;2.20;;
9117;SDS011;4594;50.994;7.126;2023-05-10T13:37:30;2.43;;;2.33;;
9117;SDS011;4594;50.994;7.126;2023-05-10T13:39:57;2.40;;;2.30;;
9117;SDS011;4594;50.994;7.126;2023-05-10T13:42:23;2.50;;;2.40;;
9117;SDS011;4594;50.994;7.126;2023-05-10T13:44:49;4.53;;;2.40;;
9117;SDS011;4594;50.994;7.126;2023-05-10T13:47:15;2.13;;;2.03;;
9117;SDS011;4594;50.994;7.126;2023-05-10T13:49:41;3.57;;;2.40;;
9117;SDS011;4594;50.994;7.126;2023-05-10T13:52:07;2.33;;;2.13;;
9117;SDS011;4594;50.994;7.126;2023-05-10T13:54:33;1.87;;;1.87;;
9117;SDS011;4594;50.994;7.126;2023-05-10T13:56:59;5.10;;;2.30;;
9117;SDS011;4594;50.994;7.126;2023-05-10T13:59:25;3.63;;;2.37;;
9117;SDS011;4594;50.994;7.126;2023-05-10T14:01:51;1.80;;;1.67;;
9117;SDS011;4594;50.994;7.126;2023-05-10T14:04:16;1.80;;;1.63;;
9117;SDS011;4594;50.994;7.126;2023-05-10T14:06:42;2.27;;;2.17;;
9117;SDS011;4594;50.994;7.126;2023-05-10T14:09:08;2.10;;;2.00;;
9117;SDS011;4594;50.994;7.126;2023-05-10T14:11:34;2.20;;;2.10;;
9117;SDS011;4594;50.994;7.126;2023-05-10T14:13:59;2.40;;;2.27;;
9117;SDS011;4594;50.994;7.126;2023-05-10T14:16:25;3.13;;;2.33;;
9117;SDS011;4594;50.994;7.126;2023-05-10T14:18:51;5.33;;;2.47;;
9117;SDS011;4594;50.994;7.126;2023-05-10T14:21:17;2.50;;;2.30;;
9117;SDS011;4594;50.994;7.126;2023-05-10T14:23:43;2.30;;;2.20;;
9117;SDS011;4594;50.994;7.126;2023-05-10T14:26:09;2.50;;;1.73;;
9117;SDS011;4594;50.994;7.126;2023-05-10T14:28:34;2.27;;;2.17;;
9117;SDS011;4594;50.994;7.126;2023-05-10T14:31:00;2.43;;;2.33;;
9117;SDS011;4594;50.994;7.126;2023-05-10T14:33:26;2.37;;;2.17;;
9117;SDS011;4594;50.994;7.126;2023-05-10T14:35:51;2.80;;;2.70;;
9117;SDS011;4594;50.994;7.126;2023-05-10T14:38:19;3.43;;;3.20;;
9117;SDS011;4594;50.994;7.126;2023-05-10T14:40:44;4.53;;;3.63;;
9117;SDS011;4594;50.994;7.126;2023-05-10T14:43:10;4.77;;;3.47;;
9117;SDS011;4594;50.994;7.126;2023-05-10T14:45:36;3.80;;;3.50;;
9117;SDS011;4594;50.994;7.126;2023-05-10T14:48:01;5.50;;;4.23;;
9117;SDS011;4594;50.994;7.126;2023-05-10T14:50:29;4.50;;;4.10;;
9117;SDS011;4594;50.994;7.126;2023-05-10T14:52:56;5.17;;;4.30;;
9117;SDS011;4594;50.994;7.126;2023-05-10T14:55:23;7.80;;;4.57;;
9117;SDS011;4594;50.994;7.126;2023-05-10T14:57:49;14.50;;;8.33;;
9117;SDS011;4594;50.994;7.126;2023-05-10T15:00:15;6.40;;;5.70;;
9117;SDS011;4594;50.994;7.126;2023-05-10T15:02:43;6.17;;;5.10;;
9117;SDS011;4594;50.994;7.126;2023-05-10T15:05:09;5.93;;;5.20;;
9117;SDS011;4594;50.994;7.126;2023-05-10T15:07:34;5.40;;;4.90;;
9117;SDS011;4594;50.994;7.126;2023-05-10T15:10:00;4.60;;;4.17;;
9117;SDS011;4594;50.994;7.126;2023-05-10T15:12:26;5.57;;;4.83;;
9117;SDS011;4594;50.994;7.126;2023-05-10T15:14:51;5.03;;;4.53;;
9117;SDS011;4594;50.994;7.126;2023-05-10T15:17:17;5.80;;;4.80;;
9117;SDS011;4594;50.994;7.126;2023-05-10T15:19:43;4.73;;;4.33;;
9117;SDS011;4594;50.994;7.126;2023-05-10T15:22:08;5.43;;;4.60;;
9117;SDS011;4594;50.994;7.126;2023-05-10T15:24:34;5.37;;;4.83;;
9117;SDS011;4594;50.994;7.126;2023-05-10T15:27:00;6.87;;;5.50;;
9117;SDS011;4594;50.994;7.126;2023-05-10T15:29:25;6.87;;;5.83;;
9117;SDS011;4594;50.994;7.126;2023-05-10T15:31:51;6.37;;;5.77;;
9117;SDS011;4594;50.994;7.126;2023-05-10T15:34:17;6.30;;;5.43;;
9117;SDS011;4594;50.994;7.126;2023-05-10T15:36:44;7.70;;;5.80;;
9117;SDS011;4594;50.994;7.126;2023-05-10T15:39:10;6.43;;;5.77;;
9117;SDS011;4594;50.994;7.126;2023-05-10T15:41:36;7.10;;;6.20;;
9117;SDS011;4594;50.994;7.126;2023-05-10T15:44:01;9.23;;;6.43;;
9117;SDS011;4594;50.994;7.126;2023-05-10T15:46:28;6.97;;;6.10;;
9117;SDS011;4594;50.994;7.126;2023-05-10T15:48:54;7.40;;;6.03;;
9117;SDS011;4594;50.994;7.126;2023-05-10T15:51:20;7.97;;;6.37;;
9117;SDS011;4594;50.994;7.126;2023-05-10T15:53:45;10.37;;;6.40;;
9117;SDS011;4594;50.994;7.126;2023-05-10T15:56:11;6.63;;;5.83;;
9117;SDS011;4594;50.994;7.126;2023-05-10T15:58:37;7.70;;;6.20;;
9117;SDS011;4594;50.994;7.126;2023-05-10T16:01:04;9.43;;;7.00;;
9117;SDS011;4594;50.994;7.126;2023-05-10T16:03:30;8.47;;;6.57;;